San Fernando, California
Current Conditions -  °F | °C
As of 7:51 PM on Monday 20 Oct 2014 (Local Time) from KVNY Reporting Station
Few Clouds Few Clouds  
Wind Chill: 70°   Ceiling: Unl
Heat Index: 70°   Visibility: 10mi
Dew Point: 56°   Wind: 0mph
Humidity: 61%   Direction: NA
Pressure: 29.89"   Gusts: NA
Location:  34.28°N, 118.43°W
Report Text: KVNY 210251Z 00000KT 10SM FEW200 21/13 A2989 RMK AO2 SLP113 T02110133 53011
Loading
Personal Weather Stations






























Interactive Weather Map
Tropical Storm Tracking
New forecast layout! Learn more

10-Day Weather Forecast

Advertisements
Track Severe Weather on mobile